sensor_id;sensor_type;location;lat;lon;timestamp;temperature;humidity
1996;DHT22;38556;47.068;15.408;2023-01-19T00:00:24;4.50;99.90
1996;DHT22;38556;47.068;15.408;2023-01-19T00:02:52;4.40;99.90
1996;DHT22;38556;47.068;15.408;2023-01-19T00:05:19;6.00;99.90
1996;DHT22;38556;47.068;15.408;2023-01-19T00:07:47;4.10;99.90
1996;DHT22;38556;47.068;15.408;2023-01-19T00:10:14;4.10;99.90
1996;DHT22;38556;47.068;15.408;2023-01-19T00:12:42;4.20;99.90
1996;DHT22;38556;47.068;15.408;2023-01-19T00:15:11;4.20;99.90
1996;DHT22;38556;47.068;15.408;2023-01-19T00:17:38;4.30;99.90
1996;DHT22;38556;47.068;15.408;2023-01-19T00:20:08;4.40;99.90
1996;DHT22;38556;47.068;15.408;2023-01-19T00:22:36;4.30;99.90
1996;DHT22;38556;47.068;15.408;2023-01-19T00:25:04;4.50;99.90
1996;DHT22;38556;47.068;15.408;2023-01-19T00:27:31;4.50;99.90
1996;DHT22;38556;47.068;15.408;2023-01-19T00:30:00;4.50;99.90
1996;DHT22;38556;47.068;15.408;2023-01-19T00:32:29;4.80;99.90
1996;DHT22;38556;47.068;15.408;2023-01-19T00:34:56;4.70;99.90
1996;DHT22;38556;47.068;15.408;2023-01-19T00:37:23;4.80;99.90
1996;DHT22;38556;47.068;15.408;2023-01-19T00:39:51;4.80;99.90
1996;DHT22;38556;47.068;15.408;2023-01-19T00:42:18;4.90;99.90
1996;DHT22;38556;47.068;15.408;2023-01-19T00:45:04;4.90;99.90
1996;DHT22;38556;47.068;15.408;2023-01-19T00:47:32;4.90;99.90
1996;DHT22;38556;47.068;15.408;2023-01-19T00:50:00;4.90;99.90
1996;DHT22;38556;47.068;15.408;2023-01-19T00:52:27;4.70;99.90
1996;DHT22;38556;47.068;15.408;2023-01-19T00:54:54;4.90;99.90
1996;DHT22;38556;47.068;15.408;2023-01-19T00:57:22;5.00;99.90
1996;DHT22;38556;47.068;15.408;2023-01-19T00:59:49;4.90;99.90
1996;DHT22;38556;47.068;15.408;2023-01-19T01:02:16;4.70;99.90
1996;DHT22;38556;47.068;15.408;2023-01-19T01:04:45;4.70;99.90
1996;DHT22;38556;47.068;15.408;2023-01-19T01:07:13;4.80;99.90
1996;DHT22;38556;47.068;15.408;2023-01-19T01:09:40;4.80;99.90
1996;DHT22;38556;47.068;15.408;2023-01-19T01:12:07;5.10;99.90
1996;DHT22;38556;47.068;15.408;2023-01-19T01:14:34;4.70;99.90
1996;DHT22;38556;47.068;15.408;2023-01-19T01:17:01;4.20;99.90
1996;DHT22;38556;47.068;15.408;2023-01-19T01:19:29;4.10;99.90
1996;DHT22;38556;47.068;15.408;2023-01-19T01:21:58;4.30;99.90
1996;DHT22;38556;47.068;15.408;2023-01-19T01:24:25;3.90;99.90
1996;DHT22;38556;47.068;15.408;2023-01-19T01:26:52;3.70;99.90
1996;DHT22;38556;47.068;15.408;2023-01-19T01:29:19;3.60;99.90
1996;DHT22;38556;47.068;15.408;2023-01-19T01:31:47;3.60;99.90
1996;DHT22;38556;47.068;15.408;2023-01-19T01:34:14;3.60;99.90
1996;DHT22;38556;47.068;15.408;2023-01-19T01:36:42;3.70;99.90
1996;DHT22;38556;47.068;15.408;2023-01-19T01:39:11;3.60;99.90
1996;DHT22;38556;47.068;15.408;2023-01-19T01:41:39;3.60;99.90
1996;DHT22;38556;47.068;15.408;2023-01-19T01:47:17;3.60;99.90
1996;DHT22;38556;47.068;15.408;2023-01-19T01:49:46;3.60;99.90
1996;DHT22;38556;47.068;15.408;2023-01-19T01:52:14;3.90;99.90
1996;DHT22;38556;47.068;15.408;2023-01-19T01:54:43;3.60;99.90
1996;DHT22;38556;47.068;15.408;2023-01-19T01:57:11;3.60;99.90
1996;DHT22;38556;47.068;15.408;2023-01-19T01:59:41;3.60;99.90
1996;DHT22;38556;47.068;15.408;2023-01-19T02:02:11;3.80;99.90
1996;DHT22;38556;47.068;15.408;2023-01-19T02:04:59;3.60;99.90
1996;DHT22;38556;47.068;15.408;2023-01-19T02:07:34;3.60;99.90
1996;DHT22;38556;47.068;15.408;2023-01-19T02:10:23;3.80;99.90
1996;DHT22;38556;47.068;15.408;2023-01-19T02:13:08;3.50;99.90
1996;DHT22;38556;47.068;15.408;2023-01-19T02:15:45;3.50;99.90
1996;DHT22;38556;47.068;15.408;2023-01-19T02:18:13;3.70;99.90
1996;DHT22;38556;47.068;15.408;2023-01-19T02:20:44;3.70;99.90
1996;DHT22;38556;47.068;15.408;2023-01-19T02:23:18;3.90;99.90
1996;DHT22;38556;47.068;15.408;2023-01-19T02:25:48;3.70;99.90
1996;DHT22;38556;47.068;15.408;2023-01-19T02:28:16;3.70;99.90
1996;DHT22;38556;47.068;15.408;2023-01-19T02:30:43;4.30;99.90
1996;DHT22;38556;47.068;15.408;2023-01-19T02:33:11;3.80;99.90
1996;DHT22;38556;47.068;15.408;2023-01-19T02:35:39;3.60;99.90
1996;DHT22;38556;47.068;15.408;2023-01-19T02:38:07;3.70;99.90
1996;DHT22;38556;47.068;15.408;2023-01-19T02:40:35;3.70;99.90
1996;DHT22;38556;47.068;15.408;2023-01-19T02:43:06;3.70;99.90
1996;DHT22;38556;47.068;15.408;2023-01-19T02:45:34;3.70;99.90
1996;DHT22;38556;47.068;15.408;2023-01-19T02:48:04;3.70;99.90
1996;DHT22;38556;47.068;15.408;2023-01-19T02:50:40;3.70;99.90
1996;DHT22;38556;47.068;15.408;2023-01-19T02:53:33;3.70;99.90
1996;DHT22;38556;47.068;15.408;2023-01-19T02:56:15;3.50;99.90
1996;DHT22;38556;47.068;15.408;2023-01-19T02:58:57;3.60;99.90
1996;DHT22;38556;47.068;15.408;2023-01-19T03:01:31;3.50;99.90
1996;DHT22;38556;47.068;15.408;2023-01-19T03:04:10;3.50;99.90
1996;DHT22;38556;47.068;15.408;2023-01-19T03:06:43;3.40;99.90
1996;DHT22;38556;47.068;15.408;2023-01-19T03:09:16;3.60;99.90
1996;DHT22;38556;47.068;15.408;2023-01-19T03:11:50;3.40;99.90
1996;DHT22;38556;47.068;15.408;2023-01-19T03:14:24;3.40;99.90
1996;DHT22;38556;47.068;15.408;2023-01-19T03:16:55;3.40;99.90
1996;DHT22;38556;47.068;15.408;2023-01-19T03:19:26;3.30;99.90
1996;DHT22;38556;47.068;15.408;2023-01-19T03:21:57;3.50;99.90
1996;DHT22;38556;47.068;15.408;2023-01-19T03:24:28;3.30;99.90
1996;DHT22;38556;47.068;15.408;2023-01-19T03:27:00;3.30;99.90
1996;DHT22;38556;47.068;15.408;2023-01-19T03:29:32;3.40;99.90
1996;DHT22;38556;47.068;15.408;2023-01-19T03:32:04;3.60;99.90
1996;DHT22;38556;47.068;15.408;2023-01-19T03:34:33;3.40;99.90
1996;DHT22;38556;47.068;15.408;2023-01-19T03:37:02;3.40;99.90
1996;DHT22;38556;47.068;15.408;2023-01-19T03:39:31;3.50;99.90
1996;DHT22;38556;47.068;15.408;2023-01-19T03:42:03;3.40;99.90
1996;DHT22;38556;47.068;15.408;2023-01-19T03:44:35;3.30;99.90
1996;DHT22;38556;47.068;15.408;2023-01-19T03:47:04;3.20;99.90
1996;DHT22;38556;47.068;15.408;2023-01-19T03:49:34;3.30;99.90
1996;DHT22;38556;47.068;15.408;2023-01-19T03:52:03;3.20;99.90
1996;DHT22;38556;47.068;15.408;2023-01-19T03:54:31;3.30;99.90
1996;DHT22;38556;47.068;15.408;2023-01-19T03:56:58;3.20;99.90
1996;DHT22;38556;47.068;15.408;2023-01-19T03:59:25;3.20;99.90
1996;DHT22;38556;47.068;15.408;2023-01-19T04:01:54;3.20;99.90
1996;DHT22;38556;47.068;15.408;2023-01-19T04:04:22;3.10;99.90
1996;DHT22;38556;47.068;15.408;2023-01-19T04:06:50;3.10;99.90
1996;DHT22;38556;47.068;15.408;2023-01-19T04:09:17;3.00;99.90
1996;DHT22;38556;47.068;15.408;2023-01-19T04:11:44;3.00;99.90
1996;DHT22;38556;47.068;15.408;2023-01-19T04:14:11;3.10;99.90
1996;DHT22;38556;47.068;15.408;2023-01-19T04:16:39;3.10;99.90
1996;DHT22;38556;47.068;15.408;2023-01-19T04:19:08;3.10;99.90
1996;DHT22;38556;47.068;15.408;2023-01-19T04:21:35;3.00;99.90
1996;DHT22;38556;47.068;15.408;2023-01-19T04:24:03;3.00;99.90
1996;DHT22;38556;47.068;15.408;2023-01-19T04:26:30;3.00;99.90
1996;DHT22;38556;47.068;15.408;2023-01-19T04:28:57;3.00;99.90
1996;DHT22;38556;47.068;15.408;2023-01-19T04:31:25;3.10;99.90
1996;DHT22;38556;47.068;15.408;2023-01-19T04:33:52;3.10;99.90
1996;DHT22;38556;47.068;15.408;2023-01-19T04:36:23;3.00;99.90
1996;DHT22;38556;47.068;15.408;2023-01-19T04:38:50;3.10;99.90
1996;DHT22;38556;47.068;15.408;2023-01-19T04:41:17;3.00;99.90
1996;DHT22;38556;47.068;15.408;2023-01-19T04:43:45;3.00;99.90
1996;DHT22;38556;47.068;15.408;2023-01-19T04:46:12;3.00;99.90
1996;DHT22;38556;47.068;15.408;2023-01-19T04:48:40;3.00;99.90
1996;DHT22;38556;47.068;15.408;2023-01-19T04:53:36;2.90;99.90
1996;DHT22;38556;47.068;15.408;2023-01-19T04:56:04;2.90;99.90
1996;DHT22;38556;47.068;15.408;2023-01-19T04:58:32;2.90;99.90
1996;DHT22;38556;47.068;15.408;2023-01-19T05:00:59;2.90;99.90
1996;DHT22;38556;47.068;15.408;2023-01-19T05:03:26;2.90;99.90
1996;DHT22;38556;47.068;15.408;2023-01-19T05:05:53;2.90;99.90
1996;DHT22;38556;47.068;15.408;2023-01-19T05:08:21;2.80;99.90
1996;DHT22;38556;47.068;15.408;2023-01-19T05:10:50;2.80;99.90
1996;DHT22;38556;47.068;15.408;2023-01-19T05:13:18;2.80;99.90
1996;DHT22;38556;47.068;15.408;2023-01-19T05:15:45;2.80;99.90
1996;DHT22;38556;47.068;15.408;2023-01-19T05:18:12;2.80;99.90
1996;DHT22;38556;47.068;15.408;2023-01-19T05:20:40;2.80;99.90
1996;DHT22;38556;47.068;15.408;2023-01-19T05:23:07;2.90;99.90
1996;DHT22;38556;47.068;15.408;2023-01-19T05:25:35;2.60;99.90
1996;DHT22;38556;47.068;15.408;2023-01-19T05:28:03;2.90;99.90
1996;DHT22;38556;47.068;15.408;2023-01-19T05:30:30;2.90;99.90
1996;DHT22;38556;47.068;15.408;2023-01-19T05:32:58;2.80;99.90
1996;DHT22;38556;47.068;15.408;2023-01-19T05:35:26;2.80;99.90
1996;DHT22;38556;47.068;15.408;2023-01-19T05:37:54;2.90;99.90
1996;DHT22;38556;47.068;15.408;2023-01-19T05:40:21;2.90;99.90
1996;DHT22;38556;47.068;15.408;2023-01-19T05:42:48;2.80;99.90
1996;DHT22;38556;47.068;15.408;2023-01-19T05:45:17;2.80;99.90
1996;DHT22;38556;47.068;15.408;2023-01-19T05:47:44;2.90;99.90
1996;DHT22;38556;47.068;15.408;2023-01-19T05:50:12;2.90;99.90
1996;DHT22;38556;47.068;15.408;2023-01-19T05:52:39;3.00;99.90
1996;DHT22;38556;47.068;15.408;2023-01-19T05:55:07;2.90;99.90
1996;DHT22;38556;47.068;15.408;2023-01-19T05:57:34;2.80;99.90
1996;DHT22;38556;47.068;15.408;2023-01-19T06:00:03;2.80;99.90
1996;DHT22;38556;47.068;15.408;2023-01-19T06:02:32;2.90;99.90
1996;DHT22;38556;47.068;15.408;2023-01-19T06:04:59;2.90;99.90
1996;DHT22;38556;47.068;15.408;2023-01-19T06:07:27;2.90;99.90
1996;DHT22;38556;47.068;15.408;2023-01-19T06:09:54;2.80;99.90
1996;DHT22;38556;47.068;15.408;2023-01-19T06:12:22;2.80;99.90
1996;DHT22;38556;47.068;15.408;2023-01-19T06:14:49;2.80;99.90
1996;DHT22;38556;47.068;15.408;2023-01-19T06:17:16;2.90;99.90
1996;DHT22;38556;47.068;15.408;2023-01-19T06:19:45;3.10;99.90
1996;DHT22;38556;47.068;15.408;2023-01-19T06:22:12;2.90;99.90
1996;DHT22;38556;47.068;15.408;2023-01-19T06:24:40;2.80;99.90
1996;DHT22;38556;47.068;15.408;2023-01-19T06:27:08;3.00;99.90
1996;DHT22;38556;47.068;15.408;2023-01-19T06:29:35;3.00;99.90
1996;DHT22;38556;47.068;15.408;2023-01-19T06:32:04;2.90;99.90
1996;DHT22;38556;47.068;15.408;2023-01-19T06:37:01;3.00;99.90
1996;DHT22;38556;47.068;15.408;2023-01-19T06:39:28;3.00;99.90
1996;DHT22;38556;47.068;15.408;2023-01-19T06:41:56;3.00;99.90
1996;DHT22;38556;47.068;15.408;2023-01-19T06:44:23;3.10;99.90
1996;DHT22;38556;47.068;15.408;2023-01-19T06:46:51;3.10;99.90
1996;DHT22;38556;47.068;15.408;2023-01-19T06:49:18;3.00;99.90
1996;DHT22;38556;47.068;15.408;2023-01-19T06:51:45;3.10;99.90
1996;DHT22;38556;47.068;15.408;2023-01-19T06:54:14;3.10;99.90
1996;DHT22;38556;47.068;15.408;2023-01-19T06:56:42;3.20;99.90
1996;DHT22;38556;47.068;15.408;2023-01-19T06:59:09;3.30;99.90
1996;DHT22;38556;47.068;15.408;2023-01-19T07:01:37;3.30;99.90
1996;DHT22;38556;47.068;15.408;2023-01-19T07:04:04;3.20;99.90
1996;DHT22;38556;47.068;15.408;2023-01-19T07:08:59;3.30;99.90
1996;DHT22;38556;47.068;15.408;2023-01-19T07:11:31;3.20;99.90
1996;DHT22;38556;47.068;15.408;2023-01-19T07:13:58;3.20;99.90
1996;DHT22;38556;47.068;15.408;2023-01-19T07:16:26;3.20;99.90
1996;DHT22;38556;47.068;15.408;2023-01-19T07:18:53;3.20;99.90
1996;DHT22;38556;47.068;15.408;2023-01-19T07:21:21;3.20;99.90
1996;DHT22;38556;47.068;15.408;2023-01-19T07:23:48;3.30;99.90
1996;DHT22;38556;47.068;15.408;2023-01-19T07:26:17;3.30;99.90
1996;DHT22;38556;47.068;15.408;2023-01-19T07:28:47;3.30;99.90
1996;DHT22;38556;47.068;15.408;2023-01-19T07:31:15;3.30;99.90
1996;DHT22;38556;47.068;15.408;2023-01-19T07:33:43;3.40;99.90
1996;DHT22;38556;47.068;15.408;2023-01-19T07:36:11;3.50;99.90
1996;DHT22;38556;47.068;15.408;2023-01-19T07:38:38;3.40;99.90
1996;DHT22;38556;47.068;15.408;2023-01-19T07:41:07;3.40;99.90
1996;DHT22;38556;47.068;15.408;2023-01-19T07:43:35;3.40;99.90
1996;DHT22;38556;47.068;15.408;2023-01-19T07:46:05;3.60;99.90
1996;DHT22;38556;47.068;15.408;2023-01-19T07:48:32;3.60;99.90
1996;DHT22;38556;47.068;15.408;2023-01-19T07:51:00;3.50;99.90
1996;DHT22;38556;47.068;15.408;2023-01-19T07:53:30;3.50;99.90
1996;DHT22;38556;47.068;15.408;2023-01-19T07:55:58;3.50;99.90
1996;DHT22;38556;47.068;15.408;2023-01-19T07:58:25;3.40;99.90
1996;DHT22;38556;47.068;15.408;2023-01-19T08:00:52;3.50;99.80
1996;DHT22;38556;47.068;15.408;2023-01-19T08:03:21;3.40;99.90
1996;DHT22;38556;47.068;15.408;2023-01-19T08:05:50;3.40;99.90
1996;DHT22;38556;47.068;15.408;2023-01-19T08:08:18;3.50;99.90
1996;DHT22;38556;47.068;15.408;2023-01-19T08:10:49;3.60;99.90
1996;DHT22;38556;47.068;15.408;2023-01-19T08:13:16;3.70;99.90
1996;DHT22;38556;47.068;15.408;2023-01-19T08:15:46;3.50;99.90
1996;DHT22;38556;47.068;15.408;2023-01-19T08:20:44;3.50;99.90
1996;DHT22;38556;47.068;15.408;2023-01-19T08:23:11;3.40;99.60
1996;DHT22;38556;47.068;15.408;2023-01-19T08:25:39;3.40;99.90
1996;DHT22;38556;47.068;15.408;2023-01-19T08:28:10;3.50;99.90
1996;DHT22;38556;47.068;15.408;2023-01-19T08:30:38;3.50;99.90
1996;DHT22;38556;47.068;15.408;2023-01-19T08:33:06;3.70;99.90
1996;DHT22;38556;47.068;15.408;2023-01-19T08:35:34;3.50;99.80
1996;DHT22;38556;47.068;15.408;2023-01-19T08:38:04;3.40;99.80
1996;DHT22;38556;47.068;15.408;2023-01-19T08:40:33;3.40;99.70
1996;DHT22;38556;47.068;15.408;2023-01-19T08:43:02;3.40;99.30
1996;DHT22;38556;47.068;15.408;2023-01-19T08:45:32;3.40;99.40
1996;DHT22;38556;47.068;15.408;2023-01-19T08:48:01;3.50;99.70
1996;DHT22;38556;47.068;15.408;2023-01-19T08:50:29;3.50;99.60
1996;DHT22;38556;47.068;15.408;2023-01-19T08:52:57;3.60;99.50
1996;DHT22;38556;47.068;15.408;2023-01-19T08:55:27;3.60;99.50
1996;DHT22;38556;47.068;15.408;2023-01-19T08:57:56;3.60;99.40
1996;DHT22;38556;47.068;15.408;2023-01-19T09:00:24;3.70;99.50
1996;DHT22;38556;47.068;15.408;2023-01-19T09:02:53;3.60;99.20
1996;DHT22;38556;47.068;15.408;2023-01-19T09:05:21;3.60;98.80
1996;DHT22;38556;47.068;15.408;2023-01-19T09:07:49;3.50;98.60
1996;DHT22;38556;47.068;15.408;2023-01-19T09:10:18;3.50;98.40
1996;DHT22;38556;47.068;15.408;2023-01-19T09:12:46;3.50;98.70
1996;DHT22;38556;47.068;15.408;2023-01-19T09:15:15;3.50;98.60
1996;DHT22;38556;47.068;15.408;2023-01-19T09:17:43;3.50;98.80
1996;DHT22;38556;47.068;15.408;2023-01-19T09:20:10;3.40;98.50
1996;DHT22;38556;47.068;15.408;2023-01-19T09:22:39;3.40;98.70
1996;DHT22;38556;47.068;15.408;2023-01-19T09:25:07;3.60;98.80
1996;DHT22;38556;47.068;15.408;2023-01-19T09:27:35;3.60;98.80
1996;DHT22;38556;47.068;15.408;2023-01-19T09:30:04;3.60;98.80
1996;DHT22;38556;47.068;15.408;2023-01-19T09:32:32;3.60;98.50
1996;DHT22;38556;47.068;15.408;2023-01-19T09:34:59;3.70;98.90
1996;DHT22;38556;47.068;15.408;2023-01-19T09:37:27;3.60;98.40
1996;DHT22;38556;47.068;15.408;2023-01-19T09:39:54;3.60;98.50
1996;DHT22;38556;47.068;15.408;2023-01-19T09:42:28;3.60;98.90
1996;DHT22;38556;47.068;15.408;2023-01-19T09:44:57;3.70;98.80
1996;DHT22;38556;47.068;15.408;2023-01-19T09:47:28;3.70;98.70
1996;DHT22;38556;47.068;15.408;2023-01-19T09:49:58;3.70;98.80
1996;DHT22;38556;47.068;15.408;2023-01-19T09:52:28;3.70;98.30
1996;DHT22;38556;47.068;15.408;2023-01-19T09:54:57;3.60;98.30
1996;DHT22;38556;47.068;15.408;2023-01-19T09:57:25;3.60;98.20
1996;DHT22;38556;47.068;15.408;2023-01-19T09:59:54;3.60;97.60
1996;DHT22;38556;47.068;15.408;2023-01-19T10:02:33;3.60;98.10
1996;DHT22;38556;47.068;15.408;2023-01-19T10:05:03;3.60;98.20
1996;DHT22;38556;47.068;15.408;2023-01-19T10:07:40;3.60;98.10
1996;DHT22;38556;47.068;15.408;2023-01-19T10:10:19;3.60;98.10
1996;DHT22;38556;47.068;15.408;2023-01-19T10:15:51;3.60;98.30
1996;DHT22;38556;47.068;15.408;2023-01-19T10:18:25;3.70;98.50
1996;DHT22;38556;47.068;15.408;2023-01-19T10:21:02;3.70;98.00
1996;DHT22;38556;47.068;15.408;2023-01-19T10:23:43;3.70;98.20
1996;DHT22;38556;47.068;15.408;2023-01-19T10:26:15;3.60;97.80
1996;DHT22;38556;47.068;15.408;2023-01-19T10:31:14;3.70;97.60
1996;DHT22;38556;47.068;15.408;2023-01-19T10:33:44;3.50;97.70
1996;DHT22;38556;47.068;15.408;2023-01-19T10:36:16;3.50;97.70
1996;DHT22;38556;47.068;15.408;2023-01-19T10:38:45;3.70;98.20
1996;DHT22;38556;47.068;15.408;2023-01-19T10:41:17;3.70;98.20
1996;DHT22;38556;47.068;15.408;2023-01-19T10:43:46;3.80;98.30
1996;DHT22;38556;47.068;15.408;2023-01-19T10:46:22;3.70;97.80
1996;DHT22;38556;47.068;15.408;2023-01-19T10:48:54;3.60;97.80
1996;DHT22;38556;47.068;15.408;2023-01-19T10:51:21;3.60;97.80
1996;DHT22;38556;47.068;15.408;2023-01-19T10:53:57;3.70;98.00
1996;DHT22;38556;47.068;15.408;2023-01-19T10:56:29;3.70;97.70
1996;DHT22;38556;47.068;15.408;2023-01-19T10:58:59;3.70;97.70
1996;DHT22;38556;47.068;15.408;2023-01-19T11:01:27;3.70;98.00
1996;DHT22;38556;47.068;15.408;2023-01-19T11:03:57;3.70;98.10
1996;DHT22;38556;47.068;15.408;2023-01-19T11:06:31;3.70;97.30
1996;DHT22;38556;47.068;15.408;2023-01-19T11:09:15;3.70;97.60
1996;DHT22;38556;47.068;15.408;2023-01-19T11:11:48;3.70;97.80
1996;DHT22;38556;47.068;15.408;2023-01-19T11:14:19;3.70;98.00
1996;DHT22;38556;47.068;15.408;2023-01-19T11:16:50;3.60;98.10
1996;DHT22;38556;47.068;15.408;2023-01-19T11:19:23;3.60;98.50
1996;DHT22;38556;47.068;15.408;2023-01-19T11:21:52;3.60;98.60
1996;DHT22;38556;47.068;15.408;2023-01-19T11:24:35;3.60;98.50
1996;DHT22;38556;47.068;15.408;2023-01-19T11:27:03;3.60;98.50
1996;DHT22;38556;47.068;15.408;2023-01-19T11:29:30;3.60;98.30
1996;DHT22;38556;47.068;15.408;2023-01-19T11:32:09;3.70;98.50
1996;DHT22;38556;47.068;15.408;2023-01-19T11:34:38;3.80;98.30
1996;DHT22;38556;47.068;15.408;2023-01-19T11:39:54;3.80;98.50
1996;DHT22;38556;47.068;15.408;2023-01-19T11:42:22;3.80;99.10
1996;DHT22;38556;47.068;15.408;2023-01-19T11:44:57;3.70;99.30
1996;DHT22;38556;47.068;15.408;2023-01-19T11:47:27;3.50;99.90
1996;DHT22;38556;47.068;15.408;2023-01-19T11:50:01;3.50;99.90
1996;DHT22;38556;47.068;15.408;2023-01-19T11:52:33;3.50;99.90
1996;DHT22;38556;47.068;15.408;2023-01-19T11:55:06;3.50;99.90
1996;DHT22;38556;47.068;15.408;2023-01-19T11:57:45;3.50;99.90
1996;DHT22;38556;47.068;15.408;2023-01-19T12:00:23;3.50;99.90
1996;DHT22;38556;47.068;15.408;2023-01-19T12:02:54;3.60;99.90
1996;DHT22;38556;47.068;15.408;2023-01-19T12:05:30;3.70;99.90
1996;DHT22;38556;47.068;15.408;2023-01-19T12:08:01;3.50;99.90
1996;DHT22;38556;47.068;15.408;2023-01-19T12:10:30;3.30;99.90
1996;DHT22;38556;47.068;15.408;2023-01-19T12:12:59;3.40;99.90
1996;DHT22;38556;47.068;15.408;2023-01-19T12:15:31;3.40;99.90
1996;DHT22;38556;47.068;15.408;2023-01-19T12:18:04;3.20;99.90
1996;DHT22;38556;47.068;15.408;2023-01-19T12:20:37;3.20;99.90
1996;DHT22;38556;47.068;15.408;2023-01-19T12:23:16;3.20;99.90
1996;DHT22;38556;47.068;15.408;2023-01-19T12:26:00;3.30;99.90
1996;DHT22;38556;47.068;15.408;2023-01-19T12:28:30;3.20;99.90
1996;DHT22;38556;47.068;15.408;2023-01-19T12:30:59;3.20;99.90
1996;DHT22;38556;47.068;15.408;2023-01-19T12:33:32;3.40;99.90
1996;DHT22;38556;47.068;15.408;2023-01-19T12:36:04;3.50;99.90
1996;DHT22;38556;47.068;15.408;2023-01-19T12:38:43;3.50;99.90
1996;DHT22;38556;47.068;15.408;2023-01-19T12:41:28;3.60;99.90
1996;DHT22;38556;47.068;15.408;2023-01-19T12:44:32;3.70;99.90
1996;DHT22;38556;47.068;15.408;2023-01-19T12:47:16;3.70;99.90
1996;DHT22;38556;47.068;15.408;2023-01-19T12:49:46;3.80;99.90
1996;DHT22;38556;47.068;15.408;2023-01-19T12:52:28;4.00;99.90
1996;DHT22;38556;47.068;15.408;2023-01-19T12:55:14;4.00;99.90
1996;DHT22;38556;47.068;15.408;2023-01-19T12:57:52;3.90;99.90
1996;DHT22;38556;47.068;15.408;2023-01-19T13:00:38;4.00;99.90
1996;DHT22;38556;47.068;15.408;2023-01-19T13:03:44;4.00;99.90
1996;DHT22;38556;47.068;15.408;2023-01-19T13:06:11;4.10;99.90
1996;DHT22;38556;47.068;15.408;2023-01-19T13:08:57;2.00;99.90
1996;DHT22;38556;47.068;15.408;2023-01-19T13:11:25;4.20;99.90
1996;DHT22;38556;47.068;15.408;2023-01-19T13:20:00;4.10;99.90
1996;DHT22;38556;47.068;15.408;2023-01-19T13:25:33;4.00;99.90
1996;DHT22;38556;47.068;15.408;2023-01-19T13:28:06;4.00;99.90
1996;DHT22;38556;47.068;15.408;2023-01-19T13:30:35;4.00;99.90
1996;DHT22;38556;47.068;15.408;2023-01-19T13:33:14;4.20;99.90
1996;DHT22;38556;47.068;15.408;2023-01-19T13:35:50;4.20;99.90
1996;DHT22;38556;47.068;15.408;2023-01-19T13:38:18;4.20;99.90
1996;DHT22;38556;47.068;15.408;2023-01-19T13:40:47;4.30;99.90
1996;DHT22;38556;47.068;15.408;2023-01-19T13:43:17;4.40;99.90
1996;DHT22;38556;47.068;15.408;2023-01-19T13:45:47;4.40;99.90
1996;DHT22;38556;47.068;15.408;2023-01-19T13:48:17;4.40;99.90
1996;DHT22;38556;47.068;15.408;2023-01-19T13:51:03;4.50;99.90
1996;DHT22;38556;47.068;15.408;2023-01-19T13:53:31;4.40;99.90
1996;DHT22;38556;47.068;15.408;2023-01-19T13:56:08;4.30;99.90
1996;DHT22;38556;47.068;15.408;2023-01-19T13:58:40;4.20;99.90
1996;DHT22;38556;47.068;15.408;2023-01-19T14:01:20;4.00;99.90
1996;DHT22;38556;47.068;15.408;2023-01-19T14:03:48;4.00;99.90
1996;DHT22;38556;47.068;15.408;2023-01-19T14:06:31;4.40;99.90
1996;DHT22;38556;47.068;15.408;2023-01-19T14:09:14;4.00;99.90
1996;DHT22;38556;47.068;15.408;2023-01-19T14:11:44;4.00;99.90
1996;DHT22;38556;47.068;15.408;2023-01-19T14:14:26;4.00;99.90
1996;DHT22;38556;47.068;15.408;2023-01-19T14:16:54;3.90;99.90
1996;DHT22;38556;47.068;15.408;2023-01-19T14:19:22;3.90;99.90
1996;DHT22;38556;47.068;15.408;2023-01-19T14:22:00;3.90;99.90
1996;DHT22;38556;47.068;15.408;2023-01-19T14:24:29;3.90;99.90
1996;DHT22;38556;47.068;15.408;2023-01-19T14:27:22;3.90;99.90
1996;DHT22;38556;47.068;15.408;2023-01-19T14:29:51;3.90;99.90
1996;DHT22;38556;47.068;15.408;2023-01-19T14:32:21;3.80;99.90
1996;DHT22;38556;47.068;15.408;2023-01-19T14:34:50;3.90;99.90
1996;DHT22;38556;47.068;15.408;2023-01-19T14:37:24;3.90;99.90
1996;DHT22;38556;47.068;15.408;2023-01-19T14:39:56;4.00;99.90
1996;DHT22;38556;47.068;15.408;2023-01-19T14:42:27;4.00;99.90
1996;DHT22;38556;47.068;15.408;2023-01-19T14:45:00;3.90;99.90
1996;DHT22;38556;47.068;15.408;2023-01-19T14:47:34;3.90;99.90
1996;DHT22;38556;47.068;15.408;2023-01-19T14:50:07;3.90;99.90
1996;DHT22;38556;47.068;15.408;2023-01-19T14:52:37;3.90;99.90
1996;DHT22;38556;47.068;15.408;2023-01-19T14:55:16;4.00;99.90
1996;DHT22;38556;47.068;15.408;2023-01-19T14:57:46;4.00;99.90
1996;DHT22;38556;47.068;15.408;2023-01-19T15:00:16;3.90;99.90
1996;DHT22;38556;47.068;15.408;2023-01-19T15:02:43;3.90;99.90
1996;DHT22;38556;47.068;15.408;2023-01-19T15:05:11;3.90;99.90
1996;DHT22;38556;47.068;15.408;2023-01-19T15:07:40;4.10;99.90
1996;DHT22;38556;47.068;15.408;2023-01-19T15:10:15;4.10;99.90
1996;DHT22;38556;47.068;15.408;2023-01-19T15:12:43;4.20;99.90
1996;DHT22;38556;47.068;15.408;2023-01-19T15:15:15;4.20;99.90
1996;DHT22;38556;47.068;15.408;2023-01-19T15:17:42;4.30;99.90
1996;DHT22;38556;47.068;15.408;2023-01-19T15:20:14;4.10;99.90
1996;DHT22;38556;47.068;15.408;2023-01-19T15:22:42;4.30;99.90
1996;DHT22;38556;47.068;15.408;2023-01-19T15:25:12;4.30;99.90
1996;DHT22;38556;47.068;15.408;2023-01-19T15:27:40;4.30;99.90
1996;DHT22;38556;47.068;15.408;2023-01-19T15:30:20;4.30;99.90
1996;DHT22;38556;47.068;15.408;2023-01-19T15:32:48;4.30;99.90
1996;DHT22;38556;47.068;15.408;2023-01-19T15:35:17;4.40;99.90
1996;DHT22;38556;47.068;15.408;2023-01-19T15:37:45;4.40;99.90
1996;DHT22;38556;47.068;15.408;2023-01-19T15:40:14;4.40;99.90
1996;DHT22;38556;47.068;15.408;2023-01-19T15:42:42;4.40;99.90
1996;DHT22;38556;47.068;15.408;2023-01-19T15:45:35;4.40;99.90
1996;DHT22;38556;47.068;15.408;2023-01-19T15:48:04;4.40;99.90
1996;DHT22;38556;47.068;15.408;2023-01-19T15:50:47;4.40;99.90
1996;DHT22;38556;47.068;15.408;2023-01-19T15:53:16;4.40;99.90
1996;DHT22;38556;47.068;15.408;2023-01-19T15:55:47;4.30;99.90
1996;DHT22;38556;47.068;15.408;2023-01-19T15:58:14;4.30;99.90
1996;DHT22;38556;47.068;15.408;2023-01-19T16:00:43;4.30;99.90
1996;DHT22;38556;47.068;15.408;2023-01-19T16:03:10;4.20;99.90
1996;DHT22;38556;47.068;15.408;2023-01-19T16:05:38;4.10;99.90
1996;DHT22;38556;47.068;15.408;2023-01-19T16:08:05;3.90;99.90
1996;DHT22;38556;47.068;15.408;2023-01-19T16:10:34;3.90;99.90
1996;DHT22;38556;47.068;15.408;2023-01-19T16:13:02;4.00;99.90
1996;DHT22;38556;47.068;15.408;2023-01-19T16:15:29;4.00;99.90
1996;DHT22;38556;47.068;15.408;2023-01-19T16:17:58;4.00;99.90
1996;DHT22;38556;47.068;15.408;2023-01-19T16:20:26;4.00;99.90
1996;DHT22;38556;47.068;15.408;2023-01-19T16:22:54;4.00;99.90
1996;DHT22;38556;47.068;15.408;2023-01-19T16:25:21;4.10;99.90
1996;DHT22;38556;47.068;15.408;2023-01-19T16:27:48;4.00;99.90
1996;DHT22;38556;47.068;15.408;2023-01-19T16:30:16;3.90;99.90
1996;DHT22;38556;47.068;15.408;2023-01-19T16:32:44;3.90;99.90
1996;DHT22;38556;47.068;15.408;2023-01-19T16:35:14;3.90;99.90